createdAt,value
2018-03-18T00:00:17.447Z,-1.75
2018-03-18T00:02:47.667Z,-1.69
2018-03-18T00:05:15.257Z,-1.73
2018-03-18T00:07:42.974Z,-1.79
2018-03-18T00:10:10.764Z,-1.79
2018-03-18T00:12:38.348Z,-1.80
2018-03-18T00:15:05.922Z,-1.82
2018-03-18T00:17:33.621Z,-1.79
2018-03-18T00:20:01.278Z,-1.81
2018-03-18T00:22:29.592Z,-1.82
2018-03-18T00:24:58.612Z,-1.82
2018-03-18T00:27:26.414Z,-1.85
2018-03-18T00:29:54.028Z,-1.87
2018-03-18T00:32:21.707Z,-1.84
2018-03-18T00:34:49.760Z,-1.83
2018-03-18T00:37:18.645Z,-1.81
2018-03-18T00:39:46.244Z,-1.86
2018-03-18T00:42:13.876Z,-1.84
2018-03-18T00:44:41.461Z,-1.84
2018-03-18T00:47:09.103Z,-1.85
2018-03-18T00:49:36.759Z,-1.89
2018-03-18T00:52:04.410Z,-1.87
2018-03-18T00:54:32.379Z,-1.91
2018-03-18T00:56:59.944Z,-1.92
2018-03-18T00:59:27.513Z,-1.96
2018-03-18T01:01:55.365Z,-1.98
2018-03-18T01:04:22.976Z,-2.03
2018-03-18T01:06:50.597Z,-2.00
2018-03-18T01:09:18.183Z,-2.04
2018-03-18T01:11:45.761Z,-2.08
2018-03-18T01:14:13.373Z,-2.06
2018-03-18T01:16:40.941Z,-2.10
2018-03-18T01:19:08.743Z,-2.05
2018-03-18T01:21:36.774Z,-2.02
2018-03-18T01:24:04.357Z,-2.06
2018-03-18T01:26:32.052Z,-2.06
2018-03-18T01:28:59.624Z,-2.06
2018-03-18T01:31:27.226Z,-2.05
2018-03-18T01:33:54.871Z,-2.03
2018-03-18T01:36:22.526Z,-2.06
2018-03-18T01:38:50.132Z,-2.09
2018-03-18T01:41:17.761Z,-2.12
2018-03-18T01:43:45.378Z,-2.11
2018-03-18T01:46:12.988Z,-2.11
2018-03-18T01:48:40.593Z,-2.12
2018-03-18T01:51:08.161Z,-2.12
2018-03-18T01:53:35.783Z,-2.10
2018-03-18T01:56:03.345Z,-2.12
2018-03-18T01:58:30.924Z,-2.10
2018-03-18T02:00:58.656Z,-2.14
2018-03-18T02:03:26.306Z,-2.18
2018-03-18T02:05:53.911Z,-2.12
2018-03-18T02:08:21.496Z,-2.16
2018-03-18T02:10:49.332Z,-2.22
2018-03-18T02:13:16.975Z,-2.24
2018-03-18T02:15:44.553Z,-2.21
2018-03-18T02:18:12.441Z,-2.23
2018-03-18T02:20:40.122Z,-2.22
2018-03-18T02:23:07.709Z,-2.25
2018-03-18T02:25:35.331Z,-2.25
2018-03-18T02:28:02.902Z,-2.28
2018-03-18T02:30:30.813Z,-2.29
2018-03-18T02:32:58.476Z,-2.35
2018-03-18T02:35:26.075Z,-2.33
2018-03-18T02:37:53.653Z,-2.33
2018-03-18T02:40:21.261Z,-2.36
2018-03-18T02:42:48.908Z,-2.25
2018-03-18T02:45:16.713Z,-2.25
2018-03-18T02:47:44.299Z,-2.25
2018-03-18T02:50:11.996Z,-2.31
2018-03-18T02:52:43.578Z,-2.36
2018-03-18T02:55:11.211Z,-2.36
2018-03-18T02:57:39.101Z,-2.35
2018-03-18T03:00:06.837Z,-2.33
2018-03-18T03:02:34.436Z,-2.37
2018-03-18T03:05:01.998Z,-2.38
2018-03-18T03:07:29.609Z,-2.37
2018-03-18T03:09:57.294Z,-2.38
2018-03-18T03:12:25.255Z,-2.40
2018-03-18T03:14:52.864Z,-2.44
2018-03-18T03:17:20.426Z,-2.47
2018-03-18T03:19:48.055Z,-2.46
2018-03-18T03:22:15.904Z,-2.49
2018-03-18T03:24:43.496Z,-2.51
2018-03-18T03:27:11.105Z,-2.52
2018-03-18T03:29:38.668Z,-2.54
2018-03-18T03:32:06.261Z,-2.56
2018-03-18T03:34:33.838Z,-2.59
2018-03-18T03:37:01.487Z,-2.62
2018-03-18T03:39:29.076Z,-2.64
2018-03-18T03:41:56.733Z,-2.61
2018-03-18T03:44:24.382Z,-2.67
2018-03-18T03:46:52.177Z,-2.63
2018-03-18T03:49:19.769Z,-2.66
2018-03-18T03:51:47.373Z,-2.69
2018-03-18T03:54:15.003Z,-2.71
2018-03-18T03:56:42.653Z,-2.68
2018-03-18T03:59:10.637Z,-2.71
2018-03-18T04:01:38.207Z,-2.74
2018-03-18T04:04:05.823Z,-2.77
2018-03-18T04:06:33.414Z,-2.80
2018-03-18T04:09:01.394Z,-2.76
2018-03-18T04:11:29.010Z,-2.77
2018-03-18T04:13:56.803Z,-2.76
2018-03-18T04:16:24.399Z,-2.77
2018-03-18T04:18:52.059Z,-2.75
2018-03-18T04:21:19.642Z,-2.84
2018-03-18T04:23:47.672Z,-2.79
2018-03-18T04:26:15.292Z,-2.83
2018-03-18T04:28:42.971Z,-2.83
2018-03-18T04:31:10.877Z,-2.88
2018-03-18T04:33:38.522Z,-2.86
2018-03-18T04:36:06.106Z,-2.92
2018-03-18T04:38:33.685Z,-2.89
2018-03-18T04:41:01.325Z,-2.86
2018-03-18T04:43:28.909Z,-2.87
2018-03-18T04:45:56.493Z,-2.83
2018-03-18T04:48:24.106Z,-2.83
2018-03-18T04:50:51.672Z,-2.87
2018-03-18T04:53:19.350Z,-2.85
2018-03-18T04:55:47.287Z,-2.90
2018-03-18T04:58:15.089Z,-2.93
2018-03-18T05:00:42.710Z,-2.96
2018-03-18T05:03:10.297Z,-2.96
2018-03-18T05:05:37.923Z,-3.01
2018-03-18T05:08:05.493Z,-3.01
2018-03-18T05:10:33.561Z,-3.00
2018-03-18T05:13:01.431Z,-2.99
2018-03-18T05:15:28.983Z,-3.00
2018-03-18T05:17:56.774Z,-3.00
2018-03-18T05:20:24.369Z,-2.99
2018-03-18T05:22:51.944Z,-3.00
2018-03-18T05:25:19.643Z,-3.00
2018-03-18T05:27:47.224Z,-2.99
2018-03-18T05:30:14.860Z,-2.99
2018-03-18T05:32:42.526Z,-2.94
2018-03-18T05:35:10.395Z,-2.93
2018-03-18T05:37:38.063Z,-2.92
2018-03-18T05:40:05.891Z,-2.93
2018-03-18T05:42:33.479Z,-2.96
2018-03-18T05:45:01.084Z,-2.94
2018-03-18T05:47:28.707Z,-2.93
2018-03-18T05:49:56.283Z,-2.89
2018-03-18T05:52:23.866Z,-2.89
2018-03-18T05:54:51.542Z,-2.86
2018-03-18T05:57:19.169Z,-2.86
2018-03-18T05:59:46.904Z,-2.89
2018-03-18T06:02:14.536Z,-2.83
2018-03-18T06:04:42.093Z,-2.82
2018-03-18T06:07:09.689Z,-2.81
2018-03-18T06:09:37.389Z,-2.81
2018-03-18T06:12:04.946Z,-2.82
2018-03-18T06:14:32.594Z,-2.77
2018-03-18T06:17:00.256Z,-2.80
2018-03-18T06:19:27.876Z,-2.78
2018-03-18T06:21:55.546Z,-2.79
2018-03-18T06:24:23.275Z,-2.80
2018-03-18T06:26:50.829Z,-2.79
2018-03-18T06:29:18.856Z,-2.79
2018-03-18T06:31:46.522Z,-2.78
2018-03-18T06:34:14.205Z,-2.80
2018-03-18T06:36:41.816Z,-2.77
2018-03-18T06:39:09.498Z,-2.78
2018-03-18T06:41:37.180Z,-2.77
2018-03-18T06:44:04.744Z,-2.70
2018-03-18T06:46:32.582Z,-2.69
2018-03-18T06:49:00.144Z,-2.68
2018-03-18T06:51:28.025Z,-2.65
2018-03-18T06:53:55.704Z,-2.63
2018-03-18T06:56:23.322Z,-2.57
2018-03-18T06:58:50.979Z,-2.56
2018-03-18T07:01:19.192Z,-2.53
2018-03-18T07:03:47.022Z,-2.53
2018-03-18T07:06:14.615Z,-2.51
2018-03-18T07:08:42.199Z,-2.45
2018-03-18T07:11:10.225Z,-2.49
2018-03-18T07:13:37.804Z,-2.44
2018-03-18T07:16:05.476Z,-2.41
2018-03-18T07:18:33.113Z,-2.35
2018-03-18T07:21:00.718Z,-2.34
2018-03-18T07:23:28.535Z,-2.37
2018-03-18T07:25:56.233Z,-2.34
2018-03-18T07:28:23.885Z,-2.39
2018-03-18T07:30:51.699Z,-2.31
2018-03-18T07:33:19.393Z,-2.26
2018-03-18T07:35:46.962Z,-2.30
2018-03-18T07:38:14.602Z,-2.20
2018-03-18T07:40:42.188Z,-2.18
2018-03-18T07:43:09.756Z,-2.11
2018-03-18T07:45:37.433Z,-2.11
2018-03-18T07:48:05.091Z,-2.12
2018-03-18T07:50:32.733Z,-2.03
2018-03-18T07:53:00.274Z,-1.99
2018-03-18T07:55:27.884Z,-1.90
2018-03-18T07:57:56.087Z,-1.77
2018-03-18T08:00:23.900Z,-1.79
2018-03-18T08:02:59.194Z,-1.81
2018-03-18T08:05:26.786Z,-1.80
2018-03-18T08:07:54.371Z,-1.83
2018-03-18T08:10:22.105Z,-1.77
2018-03-18T08:12:49.993Z,-1.73
2018-03-18T08:15:17.978Z,-1.63
2018-03-18T08:17:45.575Z,-1.63
2018-03-18T08:20:13.160Z,-1.63
2018-03-18T08:22:40.937Z,-1.52
2018-03-18T08:25:08.523Z,-1.43
2018-03-18T08:27:36.185Z,-1.34
2018-03-18T08:30:03.845Z,-1.24
2018-03-18T08:32:31.423Z,-1.20
2018-03-18T08:34:58.982Z,-1.16
2018-03-18T08:37:26.617Z,-1.17
2018-03-18T08:39:54.484Z,-1.20
2018-03-18T08:42:30.041Z,-1.32
2018-03-18T08:44:58.004Z,-1.29
2018-03-18T08:47:25.709Z,-1.15
2018-03-18T08:49:53.390Z,-1.03
2018-03-18T08:52:21.345Z,-1.00
2018-03-18T08:54:48.919Z,-0.99
2018-03-18T08:57:17.242Z,-0.85
2018-03-18T08:59:45.819Z,-0.77
2018-03-18T09:02:13.477Z,-0.69
2018-03-18T09:04:41.110Z,-0.82
2018-03-18T09:07:08.906Z,-0.81
2018-03-18T09:09:36.487Z,-0.79
2018-03-18T09:12:04.549Z,-0.68
2018-03-18T09:14:32.171Z,-0.49
2018-03-18T09:16:59.744Z,-0.51
2018-03-18T09:19:27.551Z,-0.32
2018-03-18T09:21:55.162Z,-0.37
2018-03-18T09:24:22.777Z,-0.41
2018-03-18T09:26:50.354Z,-0.41
2018-03-18T09:29:18.281Z,-0.30
2018-03-18T09:31:45.859Z,-0.15
2018-03-18T09:34:13.441Z,0.00
2018-03-18T09:36:41.362Z,0.09
2018-03-18T09:39:09.023Z,0.14
2018-03-18T09:41:36.658Z,0.20
2018-03-18T09:44:05.078Z,0.26
2018-03-18T09:46:32.667Z,0.44
2018-03-18T09:49:00.299Z,0.56
2018-03-18T09:51:27.953Z,0.51
2018-03-18T09:53:55.810Z,0.44
2018-03-18T09:56:23.433Z,0.42
2018-03-18T09:58:51.000Z,0.52
2018-03-18T10:01:18.891Z,0.63
2018-03-18T10:03:46.746Z,0.73
2018-03-18T10:06:14.401Z,0.84
2018-03-18T10:08:42.012Z,0.88
2018-03-18T10:11:09.581Z,0.87
2018-03-18T10:13:37.188Z,0.85
2018-03-18T10:16:04.766Z,0.73
2018-03-18T10:18:32.439Z,0.83
2018-03-18T10:21:00.081Z,0.75
2018-03-18T10:23:27.643Z,0.93
2018-03-18T10:25:55.329Z,1.04
2018-03-18T10:28:22.884Z,1.03
2018-03-18T10:30:50.484Z,1.03
2018-03-18T10:33:18.103Z,1.18
2018-03-18T10:35:45.742Z,1.26
2018-03-18T10:38:13.363Z,1.49
2018-03-18T10:40:40.957Z,1.64
2018-03-18T10:43:08.592Z,1.64
2018-03-18T10:45:36.301Z,1.70
2018-03-18T10:48:03.934Z,1.76
2018-03-18T10:50:31.517Z,2.02
2018-03-18T10:52:59.097Z,2.43
2018-03-18T10:55:26.727Z,2.59
2018-03-18T10:57:54.367Z,2.57
2018-03-18T11:00:22.255Z,2.66
2018-03-18T11:02:49.865Z,2.56
2018-03-18T11:05:17.664Z,2.65
2018-03-18T11:07:45.380Z,2.65
2018-03-18T11:10:12.963Z,2.72
2018-03-18T11:12:40.631Z,2.91
2018-03-18T11:15:08.371Z,3.15
2018-03-18T11:17:35.934Z,3.24
2018-03-18T11:20:03.595Z,3.01
2018-03-18T11:22:31.208Z,3.06
2018-03-18T11:24:58.864Z,2.92
2018-03-18T11:27:26.787Z,3.09
2018-03-18T11:29:54.383Z,3.27
2018-03-18T11:32:22.021Z,3.27
2018-03-18T11:34:49.636Z,3.22
2018-03-18T11:37:17.234Z,3.09
2018-03-18T11:39:44.876Z,2.75
2018-03-18T11:42:12.623Z,2.63
2018-03-18T11:44:40.200Z,2.64
2018-03-18T11:47:07.844Z,2.88
2018-03-18T11:49:35.466Z,2.80
2018-03-18T11:52:04.019Z,2.55
2018-03-18T11:54:31.671Z,2.60
2018-03-18T11:56:59.323Z,2.97
2018-03-18T11:59:26.990Z,3.38
2018-03-18T12:01:54.592Z,3.60
2018-03-18T12:04:22.277Z,3.69
2018-03-18T12:06:50.034Z,3.47
2018-03-18T12:09:17.647Z,3.38
2018-03-18T12:11:45.265Z,3.53
2018-03-18T12:14:13.045Z,3.32
2018-03-18T12:16:40.769Z,3.37
2018-03-18T12:19:08.643Z,3.23
2018-03-18T12:21:36.715Z,3.58
2018-03-18T12:24:04.776Z,3.92
2018-03-18T12:26:32.404Z,4.10
2018-03-18T12:29:00.176Z,3.89
2018-03-18T12:31:27.886Z,3.95
2018-03-18T12:33:55.560Z,3.96
2018-03-18T12:36:23.374Z,4.18
2018-03-18T12:38:51.295Z,4.59
2018-03-18T12:41:20.262Z,4.70
2018-03-18T12:43:48.125Z,4.53
2018-03-18T12:46:16.088Z,4.53
2018-03-18T12:48:44.229Z,4.50
2018-03-18T12:51:12.104Z,4.35
2018-03-18T12:53:39.938Z,4.60
2018-03-18T12:56:08.005Z,4.57
2018-03-18T12:58:35.935Z,4.51
2018-03-18T13:01:03.741Z,4.41
2018-03-18T13:03:31.375Z,4.32
2018-03-18T13:05:59.034Z,4.39
2018-03-18T13:08:26.706Z,4.56
2018-03-18T13:10:54.491Z,4.70
2018-03-18T13:13:22.466Z,4.62
2018-03-18T13:15:50.310Z,4.76
2018-03-18T13:18:17.982Z,4.44
2018-03-18T13:20:45.823Z,4.66
2018-03-18T13:23:13.672Z,4.78
2018-03-18T13:25:41.493Z,4.72
2018-03-18T13:28:09.289Z,4.88
2018-03-18T13:30:37.376Z,5.14
2018-03-18T13:33:05.304Z,4.84
2018-03-18T13:35:32.955Z,4.84
2018-03-18T13:38:00.616Z,5.10
2018-03-18T13:40:28.192Z,5.20
2018-03-18T13:42:55.909Z,5.12
2018-03-18T13:45:23.562Z,5.11
2018-03-18T13:47:51.451Z,4.84
2018-03-18T13:50:19.093Z,4.71
2018-03-18T13:52:50.419Z,5.00
2018-03-18T13:55:18.050Z,4.88
2018-03-18T13:57:45.684Z,4.86
2018-03-18T14:00:13.256Z,5.10
2018-03-18T14:02:40.859Z,5.12
2018-03-18T14:05:08.487Z,4.94
2018-03-18T14:07:36.038Z,5.07
2018-03-18T14:10:03.647Z,5.02
2018-03-18T14:12:31.355Z,5.20
2018-03-18T14:14:58.944Z,5.33
2018-03-18T14:17:26.577Z,5.64
2018-03-18T14:19:54.183Z,5.80
2018-03-18T14:22:22.515Z,5.62
2018-03-18T14:24:50.447Z,5.28
2018-03-18T14:27:18.423Z,5.04
2018-03-18T14:29:46.493Z,5.22
2018-03-18T14:32:14.655Z,5.28
2018-03-18T14:34:42.243Z,5.12
2018-03-18T14:37:09.883Z,5.20
2018-03-18T14:39:37.480Z,5.19
2018-03-18T14:42:05.058Z,5.09
2018-03-18T14:44:32.747Z,5.15
2018-03-18T14:47:00.324Z,4.84
2018-03-18T14:49:27.908Z,4.83
2018-03-18T14:51:55.527Z,4.94
2018-03-18T14:54:23.093Z,4.75
2018-03-18T14:56:50.716Z,4.72
2018-03-18T14:59:18.748Z,4.92
2018-03-18T15:01:46.394Z,4.94
2018-03-18T15:04:14.203Z,5.01
2018-03-18T15:06:41.895Z,5.11
2018-03-18T15:09:09.505Z,5.00
2018-03-18T15:11:37.391Z,4.96
2018-03-18T15:14:05.007Z,4.88
2018-03-18T15:16:32.628Z,4.87
2018-03-18T15:19:00.345Z,4.81
2018-03-18T15:21:27.932Z,4.88
2018-03-18T15:23:55.541Z,4.66
2018-03-18T15:26:23.531Z,4.64
2018-03-18T15:28:51.211Z,4.65
2018-03-18T15:31:18.990Z,4.53
2018-03-18T15:33:46.628Z,4.51
2018-03-18T15:36:14.334Z,4.51
2018-03-18T15:38:42.030Z,4.25
2018-03-18T15:41:09.609Z,4.03
2018-03-18T15:43:37.222Z,3.98
2018-03-18T15:46:04.844Z,3.83
2018-03-18T15:48:32.429Z,3.88
2018-03-18T15:51:00.090Z,3.83
2018-03-18T15:53:27.671Z,3.83
2018-03-18T15:55:55.602Z,3.83
2018-03-18T15:58:23.373Z,3.57
2018-03-18T16:00:51.076Z,3.42
2018-03-18T16:03:18.897Z,3.29
2018-03-18T16:05:46.528Z,3.33
2018-03-18T16:08:14.188Z,3.14
2018-03-18T16:10:41.819Z,3.09
2018-03-18T16:13:09.460Z,3.03
2018-03-18T16:15:37.143Z,3.07
2018-03-18T16:18:04.734Z,3.02
2018-03-18T16:20:32.357Z,3.07
2018-03-18T16:23:00.299Z,2.96
2018-03-18T16:25:27.883Z,2.87
2018-03-18T16:27:55.596Z,2.88
2018-03-18T16:30:34.933Z,2.86
2018-03-18T16:33:02.609Z,2.73
2018-03-18T16:35:30.247Z,2.77
2018-03-18T16:37:57.898Z,2.72
2018-03-18T16:40:25.916Z,2.74
2018-03-18T16:42:53.509Z,2.76
2018-03-18T16:45:21.095Z,2.75
2018-03-18T16:47:48.722Z,2.73
2018-03-18T16:50:16.325Z,2.70
2018-03-18T16:52:43.981Z,2.68
2018-03-18T16:55:11.844Z,2.64
2018-03-18T16:57:39.450Z,2.63
2018-03-18T17:00:07.074Z,2.60
2018-03-18T17:02:34.671Z,2.56
2018-03-18T17:05:02.278Z,2.53
2018-03-18T17:07:29.958Z,2.48
2018-03-18T17:09:57.542Z,2.38
2018-03-18T17:12:25.180Z,2.41
2018-03-18T17:14:52.881Z,2.32
2018-03-18T17:17:20.536Z,2.29
2018-03-18T17:19:48.116Z,2.30
2018-03-18T17:22:15.812Z,2.24
2018-03-18T17:24:43.408Z,2.18
2018-03-18T17:27:11.062Z,2.14
2018-03-18T17:29:38.691Z,2.12
2018-03-18T17:32:06.249Z,2.04
2018-03-18T17:34:33.806Z,2.00
2018-03-18T17:37:01.495Z,2.01
2018-03-18T17:39:29.276Z,1.94
2018-03-18T17:41:57.259Z,1.92
2018-03-18T17:47:40.112Z,1.80
2018-03-18T17:50:19.751Z,1.76
2018-03-18T17:52:58.959Z,1.69
2018-03-18T17:55:31.057Z,1.66
2018-03-18T17:57:58.703Z,1.64
2018-03-18T18:00:26.525Z,1.58
2018-03-18T18:02:54.118Z,1.55
2018-03-18T18:05:21.726Z,1.62
2018-03-18T18:07:49.378Z,1.56
2018-03-18T18:10:17.121Z,1.50
2018-03-18T18:12:44.949Z,1.52
2018-03-18T18:15:12.550Z,1.44
2018-03-18T18:17:40.434Z,1.40
2018-03-18T18:20:08.025Z,1.39
2018-03-18T18:22:35.604Z,1.33
2018-03-18T18:25:03.318Z,1.36
2018-03-18T18:27:30.882Z,1.30
2018-03-18T18:29:58.558Z,1.20
2018-03-18T18:32:26.128Z,1.26
2018-03-18T18:34:53.766Z,1.22
2018-03-18T18:37:21.354Z,1.20
2018-03-18T18:39:48.967Z,1.21
2018-03-18T18:42:16.943Z,1.17
2018-03-18T18:44:44.640Z,1.14
2018-03-18T18:47:12.633Z,1.15
2018-03-18T18:49:40.241Z,1.15
2018-03-18T18:52:07.831Z,1.11
2018-03-18T18:54:35.436Z,1.09
2018-03-18T18:57:03.022Z,1.02
2018-03-18T18:59:30.608Z,0.99
2018-03-18T19:01:58.190Z,0.97
2018-03-18T19:04:26.099Z,1.00
2018-03-18T19:06:53.672Z,1.01
2018-03-18T19:09:21.269Z,0.96
2018-03-18T19:11:49.322Z,1.00
2018-03-18T19:14:16.939Z,0.94
2018-03-18T19:16:44.594Z,0.89
2018-03-18T19:19:12.155Z,0.88
2018-03-18T19:21:39.806Z,0.84
2018-03-18T19:24:07.382Z,0.85
2018-03-18T19:26:34.961Z,0.80
2018-03-18T19:29:02.587Z,0.84
2018-03-18T19:31:30.182Z,0.82
2018-03-18T19:33:57.746Z,0.79
2018-03-18T19:36:25.607Z,0.75
2018-03-18T19:38:53.200Z,0.74
2018-03-18T19:41:21.616Z,0.67
2018-03-18T19:43:49.199Z,0.69
2018-03-18T19:46:16.795Z,0.71
2018-03-18T19:48:44.745Z,0.64
2018-03-18T19:51:12.500Z,0.57
2018-03-18T19:53:40.463Z,0.53
2018-03-18T19:56:08.115Z,0.53
2018-03-18T19:58:35.759Z,0.52
2018-03-18T20:01:03.350Z,0.49
2018-03-18T20:03:31.069Z,0.50
2018-03-18T20:05:58.704Z,0.45
2018-03-18T20:08:29.384Z,0.42
2018-03-18T20:10:57.244Z,0.43
2018-03-18T20:13:25.158Z,0.37
2018-03-18T20:15:52.759Z,0.39
2018-03-18T20:18:20.532Z,0.32
2018-03-18T20:20:48.106Z,0.31
2018-03-18T20:23:15.781Z,0.31
2018-03-18T20:25:43.608Z,0.29
2018-03-18T20:28:11.309Z,0.28
2018-03-18T20:30:38.875Z,0.29
2018-03-18T20:33:06.577Z,0.25
2018-03-18T20:35:34.134Z,0.23
2018-03-18T20:38:01.717Z,0.15
2018-03-18T20:40:29.366Z,0.16
2018-03-18T20:42:57.510Z,0.18
2018-03-18T20:45:25.354Z,0.12
2018-03-18T20:47:53.071Z,0.08
2018-03-18T20:50:20.780Z,0.12
2018-03-18T20:52:48.537Z,0.13
2018-03-18T20:55:16.104Z,0.08
2018-03-18T20:57:43.771Z,0.05
2018-03-18T21:00:11.372Z,0.08
2018-03-18T21:02:39.004Z,0.04
2018-03-18T21:05:06.612Z,0.09
2018-03-18T21:07:34.519Z,0.04
2018-03-18T21:10:02.436Z,0.05
2018-03-18T21:12:30.398Z,0.02
2018-03-18T21:14:58.261Z,-0.01
2018-03-18T21:17:26.100Z,-0.04
2018-03-18T21:19:53.686Z,-0.06
2018-03-18T21:22:21.403Z,-0.02
2018-03-18T21:24:49.063Z,-0.06
2018-03-18T21:27:16.650Z,-0.09
2018-03-18T21:29:44.533Z,-0.10
2018-03-18T21:32:12.162Z,-0.08
2018-03-18T21:34:39.807Z,-0.13
2018-03-18T21:37:08.021Z,-0.15
2018-03-18T21:39:35.720Z,-0.15
2018-03-18T21:42:03.280Z,-0.17
2018-03-18T21:44:30.906Z,-0.18
2018-03-18T21:46:58.502Z,-0.22
2018-03-18T21:49:26.151Z,-0.25
2018-03-18T21:51:53.779Z,-0.25
2018-03-18T21:54:21.348Z,-0.24
2018-03-18T21:56:48.944Z,-0.27
2018-03-18T21:59:16.747Z,-0.28
2018-03-18T22:01:44.332Z,-0.31
2018-03-18T22:04:11.985Z,-0.35
2018-03-18T22:06:39.826Z,-0.35
2018-03-18T22:09:07.422Z,-0.40
2018-03-18T22:11:35.103Z,-0.49
2018-03-18T22:14:03.006Z,-0.58
2018-03-18T22:16:30.602Z,-0.57
2018-03-18T22:18:58.223Z,-0.63
2018-03-18T22:21:25.785Z,-0.69
2018-03-18T22:23:53.436Z,-0.67
2018-03-18T22:26:21.077Z,-0.72
2018-03-18T22:28:48.732Z,-0.73
2018-03-18T22:31:16.305Z,-0.76
2018-03-18T22:33:43.918Z,-0.77
2018-03-18T22:36:11.926Z,-0.76
2018-03-18T22:38:39.755Z,-0.81
2018-03-18T22:41:07.415Z,-0.85
2018-03-18T22:43:35.060Z,-0.86
2018-03-18T22:46:02.728Z,-0.86
2018-03-18T22:48:30.415Z,-0.98
2018-03-18T22:50:58.130Z,-1.00
2018-03-18T22:53:26.003Z,-0.99
2018-03-18T22:55:53.800Z,-1.08
2018-03-18T22:58:21.774Z,-1.09
2018-03-18T23:00:49.446Z,-1.08
2018-03-18T23:03:17.036Z,-1.09
2018-03-18T23:05:44.638Z,-1.06
2018-03-18T23:08:12.267Z,-1.08
2018-03-18T23:10:40.221Z,-1.12
2018-03-18T23:13:08.305Z,-1.13
2018-03-18T23:15:36.813Z,-1.19
2018-03-18T23:18:04.455Z,-1.19
2018-03-18T23:20:32.327Z,-1.20
2018-03-18T23:22:59.911Z,-1.15
2018-03-18T23:25:27.563Z,-1.18
2018-03-18T23:27:55.511Z,-1.17
2018-03-18T23:30:23.082Z,-1.18
2018-03-18T23:32:50.669Z,-1.20
2018-03-18T23:35:18.317Z,-1.20
2018-03-18T23:37:45.932Z,-1.22
2018-03-18T23:40:13.624Z,-1.21
2018-03-18T23:42:41.756Z,-1.33
2018-03-18T23:45:09.451Z,-1.32
2018-03-18T23:47:37.042Z,-1.31
2018-03-18T23:50:04.731Z,-1.32
2018-03-18T23:52:32.378Z,-1.34
2018-03-18T23:54:59.974Z,-1.36
2018-03-18T23:57:27.756Z,-1.36
2018-03-18T23:59:55.724Z,-1.40
